Estación Meteorológica Peña el Pijo (Robertgarden) [ 11/12/18 20:34:16 CET ]

Fecha Hora Presion(HPa) Temp (°C) Humedad % Rocio (°C) Viento ( m/s) Direccion Lluvia 1Hora(mm) Lluvia 24H(mm) LLuvia Total(mm)
2018-May-30 01:01:51 1006.200 10.7 88 8.8       24.34 254.85
2018-May-30 02:01:49 1006.000 10.4 88 8.5       24.34 254.85
2018-May-30 03:08:05 1005.500 8.9 88 7.0       24.34 254.85
2018-May-30 04:01:47 1005.400 7.9 88 6.1       24.34 254.85
2018-May-30 05:01:54 1005.200 7.3 89 5.6       24.34 254.85
2018-May-30 06:01:53 1005.000 7.4 89 5.7       24.34 254.85
2018-May-30 07:01:46 1005.100 7.4 90 5.9       24.34 254.85
2018-May-30 08:01:50 1005.400 10.5 91 9.1       24.34 254.85
2018-May-30 09:01:55 1005.600 11.2 91 9.8       24.34 254.85
2018-May-30 10:01:43 1005.800 13.5 88 11.5       24.34 254.85
2018-May-30 11:01:38 1005.900 16.2 71 11.0       24.34 254.85
2018-May-30 12:01:44 1006.300 15.1 65 8.5       24.34 254.85
2018-May-30 13:01:40 1006.300 18.8 54 9.3       22.79 254.85
2018-May-30 14:01:52 1006.200 19.9 51 9.5       22.79 254.85
2018-May-30 15:01:41 1005.900 20.8 45 8.4       22.79 254.85
2018-May-30 16:01:31 1005.900 20.5 46 8.4       22.79 254.85
2018-May-30 17:01:49 1005.800 20.8 43 7.7 2.2 NNW   16.57 254.85
2018-May-30 18:01:46 1006.100 21.6 40 7.4 3.5 N   6.73 254.85
2018-May-30 19:01:48 1006.400 20.1 42 6.8       6.21 254.85
2018-May-30 20:01:40 1007.000 17.6 48 6.4       4.66 254.85
2018-May-30 21:01:37 1007.400 14.9 55 5.9       0.51 254.85
2018-May-30 22:01:46 1008.200 12.2 63 5.3         254.85
2018-May-30 23:01:50 1008.600 10.9 70 5.7         254.85

Temperatura Máxima:21°    Temperatura Mínima:
Presión Máxima:1008.600 Hpa    Presión Mínima:1005.000 Hpa


Volver